sensor_id;sensor_type;location;lat;lon;timestamp;P1;durP1;ratioP1;P2;durP2;ratioP2
45059;SDS011;30799;49.060;9.312;2023-01-28T00:01:28;2.08;;;1.90;;
45059;SDS011;30799;49.060;9.312;2023-01-28T00:03:54;2.10;;;2.00;;
45059;SDS011;30799;49.060;9.312;2023-01-28T00:06:22;2.20;;;2.03;;
45059;SDS011;30799;49.060;9.312;2023-01-28T00:08:49;1.88;;;1.77;;
45059;SDS011;30799;49.060;9.312;2023-01-28T00:11:16;1.70;;;1.60;;
45059;SDS011;30799;49.060;9.312;2023-01-28T00:13:42;1.73;;;1.63;;
45059;SDS011;30799;49.060;9.312;2023-01-28T00:16:09;1.77;;;1.67;;
45059;SDS011;30799;49.060;9.312;2023-01-28T00:18:36;1.98;;;1.88;;
45059;SDS011;30799;49.060;9.312;2023-01-28T00:21:08;1.75;;;1.65;;
45059;SDS011;30799;49.060;9.312;2023-01-28T00:23:37;1.70;;;1.60;;
45059;SDS011;30799;49.060;9.312;2023-01-28T00:26:06;1.95;;;1.85;;
45059;SDS011;30799;49.060;9.312;2023-01-28T00:28:38;1.77;;;1.65;;
45059;SDS011;30799;49.060;9.312;2023-01-28T00:31:06;1.60;;;1.50;;
45059;SDS011;30799;49.060;9.312;2023-01-28T00:33:39;1.88;;;1.77;;
45059;SDS011;30799;49.060;9.312;2023-01-28T00:36:06;1.88;;;1.70;;
45059;SDS011;30799;49.060;9.312;2023-01-28T00:38:33;2.00;;;1.80;;
45059;SDS011;30799;49.060;9.312;2023-01-28T00:41:07;1.83;;;1.73;;
45059;SDS011;30799;49.060;9.312;2023-01-28T00:43:35;1.77;;;1.67;;
45059;SDS011;30799;49.060;9.312;2023-01-28T00:46:05;1.70;;;1.60;;
45059;SDS011;30799;49.060;9.312;2023-01-28T00:48:34;2.05;;;1.88;;
45059;SDS011;30799;49.060;9.312;2023-01-28T00:51:01;1.75;;;1.65;;
45059;SDS011;30799;49.060;9.312;2023-01-28T00:53:30;1.67;;;1.58;;
45059;SDS011;30799;49.060;9.312;2023-01-28T00:55:57;1.90;;;1.75;;
45059;SDS011;30799;49.060;9.312;2023-01-28T00:58:23;1.50;;;1.40;;
45059;SDS011;30799;49.060;9.312;2023-01-28T01:00:50;1.80;;;1.67;;
45059;SDS011;30799;49.060;9.312;2023-01-28T01:03:17;1.98;;;1.88;;
45059;SDS011;30799;49.060;9.312;2023-01-28T01:05:45;1.77;;;1.67;;
45059;SDS011;30799;49.060;9.312;2023-01-28T01:08:12;1.75;;;1.65;;
45059;SDS011;30799;49.060;9.312;2023-01-28T01:10:38;2.15;;;1.60;;
45059;SDS011;30799;49.060;9.312;2023-01-28T01:13:05;1.70;;;1.60;;
45059;SDS011;30799;49.060;9.312;2023-01-28T01:15:33;1.65;;;1.55;;
45059;SDS011;30799;49.060;9.312;2023-01-28T01:18:00;2.08;;;1.98;;
45059;SDS011;30799;49.060;9.312;2023-01-28T01:20:27;1.55;;;1.45;;
45059;SDS011;30799;49.060;9.312;2023-01-28T01:22:58;1.40;;;1.30;;
45059;SDS011;30799;49.060;9.312;2023-01-28T01:25:25;1.48;;;1.38;;
45059;SDS011;30799;49.060;9.312;2023-01-28T01:27:51;1.65;;;1.55;;
45059;SDS011;30799;49.060;9.312;2023-01-28T01:30:18;1.55;;;1.45;;
45059;SDS011;30799;49.060;9.312;2023-01-28T01:32:45;1.40;;;1.30;;
45059;SDS011;30799;49.060;9.312;2023-01-28T01:35:12;1.77;;;1.67;;
45059;SDS011;30799;49.060;9.312;2023-01-28T01:37:42;1.70;;;1.60;;
45059;SDS011;30799;49.060;9.312;2023-01-28T01:40:10;1.63;;;1.50;;
45059;SDS011;30799;49.060;9.312;2023-01-28T01:42:37;1.40;;;1.30;;
45059;SDS011;30799;49.060;9.312;2023-01-28T01:45:10;1.70;;;1.60;;
45059;SDS011;30799;49.060;9.312;2023-01-28T01:47:55;1.42;;;1.33;;
45059;SDS011;30799;49.060;9.312;2023-01-28T01:50:36;1.52;;;1.42;;
45059;SDS011;30799;49.060;9.312;2023-01-28T01:53:07;1.80;;;1.70;;
45059;SDS011;30799;49.060;9.312;2023-01-28T01:55:40;2.13;;;1.92;;
45059;SDS011;30799;49.060;9.312;2023-01-28T01:58:12;1.60;;;1.50;;
45059;SDS011;30799;49.060;9.312;2023-01-28T02:00:41;1.50;;;1.40;;
45059;SDS011;30799;49.060;9.312;2023-01-28T02:03:09;1.67;;;1.58;;
45059;SDS011;30799;49.060;9.312;2023-01-28T02:05:37;1.70;;;1.60;;
45059;SDS011;30799;49.060;9.312;2023-01-28T02:08:05;1.50;;;1.40;;
45059;SDS011;30799;49.060;9.312;2023-01-28T02:10:47;1.60;;;1.50;;
45059;SDS011;30799;49.060;9.312;2023-01-28T02:13:20;1.40;;;1.30;;
45059;SDS011;30799;49.060;9.312;2023-01-28T02:15:50;1.48;;;1.38;;
45059;SDS011;30799;49.060;9.312;2023-01-28T02:18:17;1.48;;;1.38;;
45059;SDS011;30799;49.060;9.312;2023-01-28T02:26:21;1.95;;;1.60;;
45059;SDS011;30799;49.060;9.312;2023-01-28T02:29:03;1.40;;;1.30;;
45059;SDS011;30799;49.060;9.312;2023-01-28T02:31:43;1.40;;;1.30;;
45059;SDS011;30799;49.060;9.312;2023-01-28T02:34:44;1.42;;;1.33;;
45059;SDS011;30799;49.060;9.312;2023-01-28T02:37:16;1.40;;;1.30;;
45059;SDS011;30799;49.060;9.312;2023-01-28T02:39:48;1.20;;;1.15;;
45059;SDS011;30799;49.060;9.312;2023-01-28T02:42:22;1.23;;;1.23;;
45059;SDS011;30799;49.060;9.312;2023-01-28T02:44:54;1.40;;;1.30;;
45059;SDS011;30799;49.060;9.312;2023-01-28T02:47:20;1.50;;;1.40;;
45059;SDS011;30799;49.060;9.312;2023-01-28T02:50:10;1.85;;;1.60;;
45059;SDS011;30799;49.060;9.312;2023-01-28T02:56:10;1.30;;;1.20;;
45059;SDS011;30799;49.060;9.312;2023-01-28T02:58:58;1.40;;;1.30;;
45059;SDS011;30799;49.060;9.312;2023-01-28T03:01:52;1.52;;;1.42;;
45059;SDS011;30799;49.060;9.312;2023-01-28T03:04:27;1.30;;;1.20;;
45059;SDS011;30799;49.060;9.312;2023-01-28T03:09:29;1.45;;;1.35;;
45059;SDS011;30799;49.060;9.312;2023-01-28T03:14:45;1.10;;;1.00;;
45059;SDS011;30799;49.060;9.312;2023-01-28T03:17:37;1.30;;;1.20;;
45059;SDS011;30799;49.060;9.312;2023-01-28T03:20:34;1.27;;;1.17;;
45059;SDS011;30799;49.060;9.312;2023-01-28T03:26:54;1.17;;;1.08;;
45059;SDS011;30799;49.060;9.312;2023-01-28T03:29:49;1.40;;;1.30;;
45059;SDS011;30799;49.060;9.312;2023-01-28T03:32:37;1.20;;;1.20;;
45059;SDS011;30799;49.060;9.312;2023-01-28T03:35:24;1.58;;;1.48;;
45059;SDS011;30799;49.060;9.312;2023-01-28T03:38:14;1.50;;;1.40;;
45059;SDS011;30799;49.060;9.312;2023-01-28T03:40:52;1.40;;;1.30;;
45059;SDS011;30799;49.060;9.312;2023-01-28T03:43:28;1.17;;;1.13;;
45059;SDS011;30799;49.060;9.312;2023-01-28T03:45:55;1.60;;;1.50;;
45059;SDS011;30799;49.060;9.312;2023-01-28T03:52:11;1.30;;;1.20;;
45059;SDS011;30799;49.060;9.312;2023-01-28T03:54:38;1.27;;;1.17;;
45059;SDS011;30799;49.060;9.312;2023-01-28T03:57:04;1.30;;;1.20;;
45059;SDS011;30799;49.060;9.312;2023-01-28T03:59:31;1.38;;;1.27;;
45059;SDS011;30799;49.060;9.312;2023-01-28T04:01:58;1.38;;;1.27;;
45059;SDS011;30799;49.060;9.312;2023-01-28T04:04:27;1.30;;;1.20;;
45059;SDS011;30799;49.060;9.312;2023-01-28T04:06:54;1.20;;;1.10;;
45059;SDS011;30799;49.060;9.312;2023-01-28T04:09:21;1.17;;;1.17;;
45059;SDS011;30799;49.060;9.312;2023-01-28T04:11:48;1.08;;;0.98;;
45059;SDS011;30799;49.060;9.312;2023-01-28T04:14:16;1.20;;;1.10;;
45059;SDS011;30799;49.060;9.312;2023-01-28T04:16:44;1.25;;;1.15;;
45059;SDS011;30799;49.060;9.312;2023-01-28T04:19:11;1.40;;;1.30;;
45059;SDS011;30799;49.060;9.312;2023-01-28T04:21:38;1.30;;;1.20;;
45059;SDS011;30799;49.060;9.312;2023-01-28T04:24:06;1.00;;;1.00;;
45059;SDS011;30799;49.060;9.312;2023-01-28T04:26:33;1.30;;;1.20;;
45059;SDS011;30799;49.060;9.312;2023-01-28T04:29:00;1.23;;;1.13;;
45059;SDS011;30799;49.060;9.312;2023-01-28T04:31:27;1.30;;;1.20;;
45059;SDS011;30799;49.060;9.312;2023-01-28T04:33:53;1.30;;;1.20;;
45059;SDS011;30799;49.060;9.312;2023-01-28T04:36:20;1.45;;;1.35;;
45059;SDS011;30799;49.060;9.312;2023-01-28T04:38:47;1.50;;;1.40;;
45059;SDS011;30799;49.060;9.312;2023-01-28T04:41:13;1.10;;;1.08;;
45059;SDS011;30799;49.060;9.312;2023-01-28T04:43:40;1.10;;;1.10;;
45059;SDS011;30799;49.060;9.312;2023-01-28T04:46:07;1.02;;;1.00;;
45059;SDS011;30799;49.060;9.312;2023-01-28T04:48:33;1.20;;;1.10;;
45059;SDS011;30799;49.060;9.312;2023-01-28T04:51:02;1.10;;;1.10;;
45059;SDS011;30799;49.060;9.312;2023-01-28T04:53:29;1.30;;;1.20;;
45059;SDS011;30799;49.060;9.312;2023-01-28T04:55:56;1.10;;;1.10;;
45059;SDS011;30799;49.060;9.312;2023-01-28T04:58:23;1.00;;;1.00;;
45059;SDS011;30799;49.060;9.312;2023-01-28T05:00:53;1.15;;;1.08;;
45059;SDS011;30799;49.060;9.312;2023-01-28T05:03:24;1.30;;;1.20;;
45059;SDS011;30799;49.060;9.312;2023-01-28T05:05:51;1.15;;;1.05;;
45059;SDS011;30799;49.060;9.312;2023-01-28T05:08:17;1.00;;;1.00;;
45059;SDS011;30799;49.060;9.312;2023-01-28T05:10:44;1.00;;;1.00;;
45059;SDS011;30799;49.060;9.312;2023-01-28T05:13:11;1.05;;;1.05;;
45059;SDS011;30799;49.060;9.312;2023-01-28T05:15:37;1.00;;;1.00;;
45059;SDS011;30799;49.060;9.312;2023-01-28T05:18:04;1.00;;;1.00;;
45059;SDS011;30799;49.060;9.312;2023-01-28T05:20:31;0.93;;;0.93;;
45059;SDS011;30799;49.060;9.312;2023-01-28T05:22:57;1.30;;;1.17;;
45059;SDS011;30799;49.060;9.312;2023-01-28T05:25:24;1.23;;;1.08;;
45059;SDS011;30799;49.060;9.312;2023-01-28T05:27:52;1.08;;;1.02;;
45059;SDS011;30799;49.060;9.312;2023-01-28T05:30:19;1.25;;;1.15;;
45059;SDS011;30799;49.060;9.312;2023-01-28T05:32:46;1.05;;;1.05;;
45059;SDS011;30799;49.060;9.312;2023-01-28T05:35:13;1.13;;;1.10;;
45059;SDS011;30799;49.060;9.312;2023-01-28T05:37:41;1.10;;;1.10;;
45059;SDS011;30799;49.060;9.312;2023-01-28T05:40:08;0.90;;;0.90;;
45059;SDS011;30799;49.060;9.312;2023-01-28T05:42:35;1.02;;;1.00;;
45059;SDS011;30799;49.060;9.312;2023-01-28T05:45:02;0.93;;;0.90;;
45059;SDS011;30799;49.060;9.312;2023-01-28T05:47:29;1.20;;;1.10;;
45059;SDS011;30799;49.060;9.312;2023-01-28T05:49:55;0.80;;;0.80;;
45059;SDS011;30799;49.060;9.312;2023-01-28T05:52:22;1.05;;;1.05;;
45059;SDS011;30799;49.060;9.312;2023-01-28T05:54:49;1.30;;;1.20;;
45059;SDS011;30799;49.060;9.312;2023-01-28T05:57:15;1.05;;;1.05;;
45059;SDS011;30799;49.060;9.312;2023-01-28T05:59:42;1.25;;;1.20;;
45059;SDS011;30799;49.060;9.312;2023-01-28T06:02:09;1.00;;;1.00;;
45059;SDS011;30799;49.060;9.312;2023-01-28T06:04:35;1.30;;;1.20;;
45059;SDS011;30799;49.060;9.312;2023-01-28T06:07:02;0.90;;;0.90;;
45059;SDS011;30799;49.060;9.312;2023-01-28T06:09:29;1.42;;;1.33;;
45059;SDS011;30799;49.060;9.312;2023-01-28T06:11:55;1.30;;;1.20;;
45059;SDS011;30799;49.060;9.312;2023-01-28T06:14:22;0.90;;;0.90;;
45059;SDS011;30799;49.060;9.312;2023-01-28T06:16:48;0.93;;;0.90;;
45059;SDS011;30799;49.060;9.312;2023-01-28T06:19:17;0.90;;;0.90;;
45059;SDS011;30799;49.060;9.312;2023-01-28T06:21:43;1.23;;;1.13;;
45059;SDS011;30799;49.060;9.312;2023-01-28T06:24:10;1.20;;;1.10;;
45059;SDS011;30799;49.060;9.312;2023-01-28T06:26:37;0.98;;;0.98;;
45059;SDS011;30799;49.060;9.312;2023-01-28T06:29:03;1.00;;;1.00;;
45059;SDS011;30799;49.060;9.312;2023-01-28T06:31:30;0.82;;;0.82;;
45059;SDS011;30799;49.060;9.312;2023-01-28T06:33:57;0.90;;;0.90;;
45059;SDS011;30799;49.060;9.312;2023-01-28T06:36:23;1.17;;;1.08;;
45059;SDS011;30799;49.060;9.312;2023-01-28T06:38:50;1.00;;;1.00;;
45059;SDS011;30799;49.060;9.312;2023-01-28T06:41:17;0.90;;;0.90;;
45059;SDS011;30799;49.060;9.312;2023-01-28T06:43:43;1.10;;;1.10;;
45059;SDS011;30799;49.060;9.312;2023-01-28T06:46:10;1.17;;;1.08;;
45059;SDS011;30799;49.060;9.312;2023-01-28T06:48:37;0.90;;;0.90;;
45059;SDS011;30799;49.060;9.312;2023-01-28T06:51:03;0.93;;;0.93;;
45059;SDS011;30799;49.060;9.312;2023-01-28T06:53:30;1.13;;;1.10;;
45059;SDS011;30799;49.060;9.312;2023-01-28T06:55:57;0.70;;;0.70;;
45059;SDS011;30799;49.060;9.312;2023-01-28T06:58:23;1.00;;;1.00;;
45059;SDS011;30799;49.060;9.312;2023-01-28T07:00:51;1.00;;;1.00;;
45059;SDS011;30799;49.060;9.312;2023-01-28T07:03:18;0.80;;;0.80;;
45059;SDS011;30799;49.060;9.312;2023-01-28T07:05:45;1.00;;;1.00;;
45059;SDS011;30799;49.060;9.312;2023-01-28T07:08:11;1.08;;;1.00;;
45059;SDS011;30799;49.060;9.312;2023-01-28T07:10:38;1.00;;;1.00;;
45059;SDS011;30799;49.060;9.312;2023-01-28T07:13:05;0.90;;;0.90;;
45059;SDS011;30799;49.060;9.312;2023-01-28T07:15:31;1.08;;;1.08;;
45059;SDS011;30799;49.060;9.312;2023-01-28T07:17:58;1.02;;;1.02;;
45059;SDS011;30799;49.060;9.312;2023-01-28T07:20:25;0.90;;;0.90;;
45059;SDS011;30799;49.060;9.312;2023-01-28T07:22:51;0.98;;;0.98;;
45059;SDS011;30799;49.060;9.312;2023-01-28T07:25:18;0.95;;;0.95;;
45059;SDS011;30799;49.060;9.312;2023-01-28T07:27:48;0.88;;;0.88;;
45059;SDS011;30799;49.060;9.312;2023-01-28T07:32:45;0.95;;;0.95;;
45059;SDS011;30799;49.060;9.312;2023-01-28T07:35:12;1.00;;;1.00;;
45059;SDS011;30799;49.060;9.312;2023-01-28T07:37:39;0.85;;;0.85;;
45059;SDS011;30799;49.060;9.312;2023-01-28T07:40:06;0.80;;;0.80;;
45059;SDS011;30799;49.060;9.312;2023-01-28T07:42:34;0.90;;;0.90;;
45059;SDS011;30799;49.060;9.312;2023-01-28T07:45:00;0.80;;;0.80;;
45059;SDS011;30799;49.060;9.312;2023-01-28T07:47:27;1.20;;;1.10;;
45059;SDS011;30799;49.060;9.312;2023-01-28T07:49:54;1.08;;;1.00;;
45059;SDS011;30799;49.060;9.312;2023-01-28T07:52:20;1.00;;;1.00;;
45059;SDS011;30799;49.060;9.312;2023-01-28T07:54:47;1.05;;;0.98;;
45059;SDS011;30799;49.060;9.312;2023-01-28T07:57:13;0.85;;;0.85;;
45059;SDS011;30799;49.060;9.312;2023-01-28T07:59:48;1.05;;;0.95;;
45059;SDS011;30799;49.060;9.312;2023-01-28T08:02:16;1.00;;;1.00;;
45059;SDS011;30799;49.060;9.312;2023-01-28T08:04:43;0.80;;;0.80;;
45059;SDS011;30799;49.060;9.312;2023-01-28T08:07:11;1.00;;;1.00;;
45059;SDS011;30799;49.060;9.312;2023-01-28T08:09:38;1.00;;;1.00;;
45059;SDS011;30799;49.060;9.312;2023-01-28T08:12:04;0.88;;;0.88;;
45059;SDS011;30799;49.060;9.312;2023-01-28T08:14:31;1.10;;;1.02;;
45059;SDS011;30799;49.060;9.312;2023-01-28T08:16:58;0.95;;;0.95;;
45059;SDS011;30799;49.060;9.312;2023-01-28T08:19:24;1.05;;;1.00;;
45059;SDS011;30799;49.060;9.312;2023-01-28T08:21:51;0.93;;;0.90;;
45059;SDS011;30799;49.060;9.312;2023-01-28T08:24:18;1.10;;;1.00;;
45059;SDS011;30799;49.060;9.312;2023-01-28T08:26:46;1.27;;;1.20;;
45059;SDS011;30799;49.060;9.312;2023-01-28T08:29:13;1.15;;;1.05;;
45059;SDS011;30799;49.060;9.312;2023-01-28T08:31:40;0.90;;;0.90;;
45059;SDS011;30799;49.060;9.312;2023-01-28T08:34:06;0.93;;;0.93;;
45059;SDS011;30799;49.060;9.312;2023-01-28T08:36:33;0.88;;;0.88;;
45059;SDS011;30799;49.060;9.312;2023-01-28T08:39:01;0.90;;;0.90;;
45059;SDS011;30799;49.060;9.312;2023-01-28T08:41:28;1.00;;;1.00;;
45059;SDS011;30799;49.060;9.312;2023-01-28T08:43:55;0.93;;;0.93;;
45059;SDS011;30799;49.060;9.312;2023-01-28T08:46:22;0.88;;;0.88;;
45059;SDS011;30799;49.060;9.312;2023-01-28T08:48:49;0.90;;;0.90;;
45059;SDS011;30799;49.060;9.312;2023-01-28T08:51:15;0.80;;;0.80;;
45059;SDS011;30799;49.060;9.312;2023-01-28T08:57:29;0.80;;;0.80;;
45059;SDS011;30799;49.060;9.312;2023-01-28T08:59:56;0.98;;;0.98;;
45059;SDS011;30799;49.060;9.312;2023-01-28T09:02:22;1.00;;;1.00;;
45059;SDS011;30799;49.060;9.312;2023-01-28T09:04:57;0.82;;;0.82;;
45059;SDS011;30799;49.060;9.312;2023-01-28T09:07:24;1.10;;;1.05;;
45059;SDS011;30799;49.060;9.312;2023-01-28T09:09:50;0.85;;;0.85;;
45059;SDS011;30799;49.060;9.312;2023-01-28T09:12:17;0.80;;;0.80;;
45059;SDS011;30799;49.060;9.312;2023-01-28T09:14:43;1.08;;;1.08;;
45059;SDS011;30799;49.060;9.312;2023-01-28T09:17:10;0.80;;;0.80;;
45059;SDS011;30799;49.060;9.312;2023-01-28T09:19:37;0.85;;;0.85;;
45059;SDS011;30799;49.060;9.312;2023-01-28T09:22:04;0.98;;;0.98;;
45059;SDS011;30799;49.060;9.312;2023-01-28T09:24:31;0.90;;;0.90;;
45059;SDS011;30799;49.060;9.312;2023-01-28T09:26:57;0.88;;;0.88;;
45059;SDS011;30799;49.060;9.312;2023-01-28T09:29:24;0.80;;;0.80;;
45059;SDS011;30799;49.060;9.312;2023-01-28T09:31:50;1.20;;;1.10;;
45059;SDS011;30799;49.060;9.312;2023-01-28T09:34:17;0.80;;;0.80;;
45059;SDS011;30799;49.060;9.312;2023-01-28T09:36:44;0.90;;;0.90;;
45059;SDS011;30799;49.060;9.312;2023-01-28T09:39:11;0.80;;;0.80;;
45059;SDS011;30799;49.060;9.312;2023-01-28T09:44:30;0.98;;;0.90;;
45059;SDS011;30799;49.060;9.312;2023-01-28T09:47:24;0.90;;;0.90;;
45059;SDS011;30799;49.060;9.312;2023-01-28T09:50:01;1.13;;;1.13;;
45059;SDS011;30799;49.060;9.312;2023-01-28T09:52:33;0.90;;;0.90;;
45059;SDS011;30799;49.060;9.312;2023-01-28T09:55:04;1.08;;;1.02;;
45059;SDS011;30799;49.060;9.312;2023-01-28T09:57:39;1.00;;;1.00;;
45059;SDS011;30799;49.060;9.312;2023-01-28T10:00:21;1.02;;;1.00;;
45059;SDS011;30799;49.060;9.312;2023-01-28T10:05:52;0.88;;;0.88;;
45059;SDS011;30799;49.060;9.312;2023-01-28T10:13:50;0.98;;;0.98;;
45059;SDS011;30799;49.060;9.312;2023-01-28T10:16:30;1.00;;;1.00;;
45059;SDS011;30799;49.060;9.312;2023-01-28T10:19:18;1.05;;;1.05;;
45059;SDS011;30799;49.060;9.312;2023-01-28T10:21:54;0.98;;;0.98;;
45059;SDS011;30799;49.060;9.312;2023-01-28T10:26:58;0.95;;;0.95;;
45059;SDS011;30799;49.060;9.312;2023-01-28T10:29:26;1.15;;;1.05;;
45059;SDS011;30799;49.060;9.312;2023-01-28T10:36:57;1.00;;;1.00;;
45059;SDS011;30799;49.060;9.312;2023-01-28T10:39:24;0.80;;;0.80;;
45059;SDS011;30799;49.060;9.312;2023-01-28T10:41:51;1.00;;;1.00;;
45059;SDS011;30799;49.060;9.312;2023-01-28T10:44:36;1.00;;;1.00;;
45059;SDS011;30799;49.060;9.312;2023-01-28T10:47:09;1.10;;;1.00;;
45059;SDS011;30799;49.060;9.312;2023-01-28T10:49:43;1.23;;;1.15;;
45059;SDS011;30799;49.060;9.312;2023-01-28T10:52:15;1.20;;;1.10;;
45059;SDS011;30799;49.060;9.312;2023-01-28T10:54:41;1.10;;;1.00;;
45059;SDS011;30799;49.060;9.312;2023-01-28T10:57:09;1.05;;;0.95;;
45059;SDS011;30799;49.060;9.312;2023-01-28T10:59:39;1.10;;;1.00;;
45059;SDS011;30799;49.060;9.312;2023-01-28T11:07:30;1.00;;;1.00;;
45059;SDS011;30799;49.060;9.312;2023-01-28T11:09:57;1.40;;;1.30;;
45059;SDS011;30799;49.060;9.312;2023-01-28T11:12:25;0.93;;;0.88;;
45059;SDS011;30799;49.060;9.312;2023-01-28T11:14:55;0.90;;;0.90;;
45059;SDS011;30799;49.060;9.312;2023-01-28T11:17:33;0.90;;;0.90;;
45059;SDS011;30799;49.060;9.312;2023-01-28T11:20:16;1.02;;;1.02;;
45059;SDS011;30799;49.060;9.312;2023-01-28T11:22:46;1.00;;;1.00;;
45059;SDS011;30799;49.060;9.312;2023-01-28T11:27:55;1.00;;;1.00;;
45059;SDS011;30799;49.060;9.312;2023-01-28T11:35:37;0.80;;;0.80;;
45059;SDS011;30799;49.060;9.312;2023-01-28T11:38:12;1.10;;;1.00;;
45059;SDS011;30799;49.060;9.312;2023-01-28T11:40:50;0.93;;;0.93;;
45059;SDS011;30799;49.060;9.312;2023-01-28T11:43:19;1.15;;;1.05;;
45059;SDS011;30799;49.060;9.312;2023-01-28T11:45:51;0.93;;;0.93;;
45059;SDS011;30799;49.060;9.312;2023-01-28T11:51:47;1.23;;;1.13;;
45059;SDS011;30799;49.060;9.312;2023-01-28T11:57:31;0.90;;;0.90;;
45059;SDS011;30799;49.060;9.312;2023-01-28T12:00:13;1.10;;;1.00;;
45059;SDS011;30799;49.060;9.312;2023-01-28T12:03:13;0.90;;;0.90;;
45059;SDS011;30799;49.060;9.312;2023-01-28T12:08:56;0.90;;;0.90;;
45059;SDS011;30799;49.060;9.312;2023-01-28T12:11:49;0.82;;;0.82;;
45059;SDS011;30799;49.060;9.312;2023-01-28T12:20:09;1.00;;;1.00;;
45059;SDS011;30799;49.060;9.312;2023-01-28T12:22:47;0.85;;;0.85;;
45059;SDS011;30799;49.060;9.312;2023-01-28T12:41:41;0.80;;;0.75;;
45059;SDS011;30799;49.060;9.312;2023-01-28T12:44:26;0.77;;;0.77;;
45059;SDS011;30799;49.060;9.312;2023-01-28T12:47:01;0.90;;;0.90;;
45059;SDS011;30799;49.060;9.312;2023-01-28T12:49:39;1.00;;;1.00;;
45059;SDS011;30799;49.060;9.312;2023-01-28T12:55:00;1.02;;;1.02;;
45059;SDS011;30799;49.060;9.312;2023-01-28T12:57:38;0.80;;;0.80;;
45059;SDS011;30799;49.060;9.312;2023-01-28T13:00:25;0.80;;;0.80;;
45059;SDS011;30799;49.060;9.312;2023-01-28T13:03:10;1.00;;;1.00;;
45059;SDS011;30799;49.060;9.312;2023-01-28T13:09:09;1.00;;;1.00;;
45059;SDS011;30799;49.060;9.312;2023-01-28T13:11:41;0.82;;;0.82;;
45059;SDS011;30799;49.060;9.312;2023-01-28T13:14:10;0.82;;;0.82;;
45059;SDS011;30799;49.060;9.312;2023-01-28T13:16:37;0.90;;;0.90;;
45059;SDS011;30799;49.060;9.312;2023-01-28T13:19:05;1.00;;;1.00;;
45059;SDS011;30799;49.060;9.312;2023-01-28T13:21:46;1.20;;;1.10;;
45059;SDS011;30799;49.060;9.312;2023-01-28T13:26:42;1.17;;;1.10;;
45059;SDS011;30799;49.060;9.312;2023-01-28T13:29:26;0.75;;;0.75;;
45059;SDS011;30799;49.060;9.312;2023-01-28T13:31:57;0.73;;;0.73;;
45059;SDS011;30799;49.060;9.312;2023-01-28T13:37:22;0.90;;;0.90;;
45059;SDS011;30799;49.060;9.312;2023-01-28T13:39:56;0.93;;;0.93;;
45059;SDS011;30799;49.060;9.312;2023-01-28T13:42:34;0.80;;;0.80;;
45059;SDS011;30799;49.060;9.312;2023-01-28T13:50:38;0.70;;;0.70;;
45059;SDS011;30799;49.060;9.312;2023-01-28T13:53:26;1.00;;;0.90;;
45059;SDS011;30799;49.060;9.312;2023-01-28T13:56:24;1.00;;;1.00;;
45059;SDS011;30799;49.060;9.312;2023-01-28T13:59:38;0.75;;;0.75;;
45059;SDS011;30799;49.060;9.312;2023-01-28T14:04:29;0.90;;;0.90;;
45059;SDS011;30799;49.060;9.312;2023-01-28T14:07:17;0.95;;;0.95;;
45059;SDS011;30799;49.060;9.312;2023-01-28T14:10:10;0.80;;;0.80;;
45059;SDS011;30799;49.060;9.312;2023-01-28T14:18:38;0.90;;;0.90;;
45059;SDS011;30799;49.060;9.312;2023-01-28T14:21:10;0.80;;;0.80;;
45059;SDS011;30799;49.060;9.312;2023-01-28T14:23:42;1.00;;;1.00;;
45059;SDS011;30799;49.060;9.312;2023-01-28T14:29:00;0.70;;;0.70;;
45059;SDS011;30799;49.060;9.312;2023-01-28T14:31:37;0.73;;;0.73;;
45059;SDS011;30799;49.060;9.312;2023-01-28T14:37:03;0.80;;;0.80;;
45059;SDS011;30799;49.060;9.312;2023-01-28T14:39:37;1.15;;;1.05;;
45059;SDS011;30799;49.060;9.312;2023-01-28T14:45:13;0.80;;;0.80;;
45059;SDS011;30799;49.060;9.312;2023-01-28T14:48:07;0.88;;;0.88;;
45059;SDS011;30799;49.060;9.312;2023-01-28T14:50:50;0.77;;;0.77;;
45059;SDS011;30799;49.060;9.312;2023-01-28T14:54:06;1.00;;;1.00;;
45059;SDS011;30799;49.060;9.312;2023-01-28T14:59:46;0.80;;;0.80;;
45059;SDS011;30799;49.060;9.312;2023-01-28T15:02:18;0.70;;;0.70;;
45059;SDS011;30799;49.060;9.312;2023-01-28T15:04:48;0.80;;;0.80;;
45059;SDS011;30799;49.060;9.312;2023-01-28T15:07:22;0.95;;;0.95;;
45059;SDS011;30799;49.060;9.312;2023-01-28T15:10:04;0.80;;;0.80;;
45059;SDS011;30799;49.060;9.312;2023-01-28T15:12:35;0.80;;;0.80;;
45059;SDS011;30799;49.060;9.312;2023-01-28T15:15:10;0.60;;;0.60;;
45059;SDS011;30799;49.060;9.312;2023-01-28T15:17:44;0.90;;;0.90;;
45059;SDS011;30799;49.060;9.312;2023-01-28T15:20:15;0.80;;;0.80;;
45059;SDS011;30799;49.060;9.312;2023-01-28T15:22:45;0.90;;;0.90;;
45059;SDS011;30799;49.060;9.312;2023-01-28T15:25:14;0.88;;;0.88;;
45059;SDS011;30799;49.060;9.312;2023-01-28T15:27:45;0.70;;;0.70;;
45059;SDS011;30799;49.060;9.312;2023-01-28T15:30:19;1.10;;;1.10;;
45059;SDS011;30799;49.060;9.312;2023-01-28T15:33:02;1.00;;;1.00;;
45059;SDS011;30799;49.060;9.312;2023-01-28T15:35:31;0.60;;;0.60;;
45059;SDS011;30799;49.060;9.312;2023-01-28T15:38:01;0.70;;;0.70;;
45059;SDS011;30799;49.060;9.312;2023-01-28T15:40:28;0.90;;;0.90;;
45059;SDS011;30799;49.060;9.312;2023-01-28T15:42:56;0.90;;;0.90;;
45059;SDS011;30799;49.060;9.312;2023-01-28T15:45:24;0.82;;;0.82;;
45059;SDS011;30799;49.060;9.312;2023-01-28T15:48:00;0.80;;;0.80;;
45059;SDS011;30799;49.060;9.312;2023-01-28T15:50:31;0.85;;;0.85;;
45059;SDS011;30799;49.060;9.312;2023-01-28T15:52:57;0.57;;;0.57;;
45059;SDS011;30799;49.060;9.312;2023-01-28T15:55:36;0.80;;;0.80;;
45059;SDS011;30799;49.060;9.312;2023-01-28T16:00:37;0.90;;;0.90;;
45059;SDS011;30799;49.060;9.312;2023-01-28T16:03:07;0.93;;;0.93;;
45059;SDS011;30799;49.060;9.312;2023-01-28T16:05:38;0.90;;;0.90;;
45059;SDS011;30799;49.060;9.312;2023-01-28T16:08:08;0.80;;;0.80;;
45059;SDS011;30799;49.060;9.312;2023-01-28T16:10:37;0.90;;;0.90;;
45059;SDS011;30799;49.060;9.312;2023-01-28T16:13:15;0.80;;;0.80;;
45059;SDS011;30799;49.060;9.312;2023-01-28T16:15:46;0.75;;;0.75;;
45059;SDS011;30799;49.060;9.312;2023-01-28T16:20:53;0.82;;;0.82;;
45059;SDS011;30799;49.060;9.312;2023-01-28T16:23:21;0.70;;;0.70;;
45059;SDS011;30799;49.060;9.312;2023-01-28T16:26:00;0.85;;;0.85;;
45059;SDS011;30799;49.060;9.312;2023-01-28T16:28:29;0.90;;;0.90;;
45059;SDS011;30799;49.060;9.312;2023-01-28T16:30:56;0.80;;;0.80;;
45059;SDS011;30799;49.060;9.312;2023-01-28T16:33:24;0.70;;;0.70;;
45059;SDS011;30799;49.060;9.312;2023-01-28T16:35:51;1.05;;;0.98;;
45059;SDS011;30799;49.060;9.312;2023-01-28T16:38:33;0.80;;;0.80;;
45059;SDS011;30799;49.060;9.312;2023-01-28T16:40:59;0.85;;;0.85;;
45059;SDS011;30799;49.060;9.312;2023-01-28T16:43:26;0.75;;;0.75;;
45059;SDS011;30799;49.060;9.312;2023-01-28T16:45:53;0.70;;;0.70;;
45059;SDS011;30799;49.060;9.312;2023-01-28T16:48:20;0.77;;;0.77;;
45059;SDS011;30799;49.060;9.312;2023-01-28T16:50:46;0.75;;;0.75;;
45059;SDS011;30799;49.060;9.312;2023-01-28T16:53:20;0.70;;;0.70;;
45059;SDS011;30799;49.060;9.312;2023-01-28T16:55:53;0.80;;;0.80;;
45059;SDS011;30799;49.060;9.312;2023-01-28T16:58:21;0.90;;;0.85;;
45059;SDS011;30799;49.060;9.312;2023-01-28T17:00:50;0.85;;;0.85;;
45059;SDS011;30799;49.060;9.312;2023-01-28T17:03:18;0.70;;;0.70;;
45059;SDS011;30799;49.060;9.312;2023-01-28T17:05:45;1.00;;;1.00;;
45059;SDS011;30799;49.060;9.312;2023-01-28T17:08:12;0.90;;;0.90;;
45059;SDS011;30799;49.060;9.312;2023-01-28T17:10:38;0.70;;;0.70;;
45059;SDS011;30799;49.060;9.312;2023-01-28T17:13:05;0.75;;;0.75;;
45059;SDS011;30799;49.060;9.312;2023-01-28T17:15:33;0.90;;;0.90;;
45059;SDS011;30799;49.060;9.312;2023-01-28T17:18:00;0.88;;;0.88;;
45059;SDS011;30799;49.060;9.312;2023-01-28T17:20:27;0.88;;;0.88;;
45059;SDS011;30799;49.060;9.312;2023-01-28T17:22:53;1.00;;;0.73;;
45059;SDS011;30799;49.060;9.312;2023-01-28T17:25:20;0.70;;;0.70;;